Pryor, Colorado
Current Conditions -  °F | °C
As of 2:08 PM on Friday 31 Oct 2014 (Local Time) from KVTP Reporting Station
Clear Clear  
Wind Chill: 12°   Ceiling: Unl
Heat Index: 12°   Visibility: 10mi
Dew Point: -6°   Wind: 10mph
Humidity: 28%   Direction: 190°S
Pressure: 30.4"   Gusts: 18mph
Location:  37.6936°N, 104.772°W
Report Text: KVTP 312008Z AUTO 19009G16KT 160V240 10SM CLR 12/M06 A3040 RMK AO2
Loading
Personal Weather Stations






























Interactive Weather Map
Tropical Storm Tracking
New forecast layout! Learn more

10-Day Weather Forecast

Advertisements
Track Severe Weather on mobile